sensor_id;sensor_type;location;lat;lon;timestamp;temperature;humidity
12287;DHT22;6206;53.100;11.098;2023-02-01T00:00:53;6.20;99.90
12287;DHT22;6206;53.100;11.098;2023-02-01T00:03:19;6.20;99.90
12287;DHT22;6206;53.100;11.098;2023-02-01T00:05:54;6.20;99.90
12287;DHT22;6206;53.100;11.098;2023-02-01T00:08:20;6.10;99.90
12287;DHT22;6206;53.100;11.098;2023-02-01T00:10:47;6.10;99.90
12287;DHT22;6206;53.100;11.098;2023-02-01T00:13:13;6.10;99.90
12287;DHT22;6206;53.100;11.098;2023-02-01T00:15:40;6.10;99.90
12287;DHT22;6206;53.100;11.098;2023-02-01T00:18:07;6.20;99.90
12287;DHT22;6206;53.100;11.098;2023-02-01T00:20:34;6.30;99.90
12287;DHT22;6206;53.100;11.098;2023-02-01T00:23:00;6.20;99.90
12287;DHT22;6206;53.100;11.098;2023-02-01T00:25:27;6.20;99.90
12287;DHT22;6206;53.100;11.098;2023-02-01T00:27:53;6.20;99.90
12287;DHT22;6206;53.100;11.098;2023-02-01T00:30:22;6.30;99.90
12287;DHT22;6206;53.100;11.098;2023-02-01T00:32:48;6.30;99.90
12287;DHT22;6206;53.100;11.098;2023-02-01T00:35:16;6.30;99.90
12287;DHT22;6206;53.100;11.098;2023-02-01T00:37:42;6.30;99.90
12287;DHT22;6206;53.100;11.098;2023-02-01T00:40:09;6.40;99.90
12287;DHT22;6206;53.100;11.098;2023-02-01T00:42:36;6.40;99.90
12287;DHT22;6206;53.100;11.098;2023-02-01T00:45:03;6.40;99.90
12287;DHT22;6206;53.100;11.098;2023-02-01T00:47:29;6.40;99.90
12287;DHT22;6206;53.100;11.098;2023-02-01T00:49:57;6.40;99.90
12287;DHT22;6206;53.100;11.098;2023-02-01T00:52:24;6.40;99.90
12287;DHT22;6206;53.100;11.098;2023-02-01T00:54:52;6.30;99.90
12287;DHT22;6206;53.100;11.098;2023-02-01T00:59:46;6.30;99.90
12287;DHT22;6206;53.100;11.098;2023-02-01T01:02:12;6.30;99.90
12287;DHT22;6206;53.100;11.098;2023-02-01T01:04:39;6.30;99.90
12287;DHT22;6206;53.100;11.098;2023-02-01T01:07:06;6.40;99.90
12287;DHT22;6206;53.100;11.098;2023-02-01T01:09:33;6.40;99.90
12287;DHT22;6206;53.100;11.098;2023-02-01T01:12:00;6.40;99.90
12287;DHT22;6206;53.100;11.098;2023-02-01T01:14:27;6.40;99.90
12287;DHT22;6206;53.100;11.098;2023-02-01T01:16:54;6.50;99.90
12287;DHT22;6206;53.100;11.098;2023-02-01T01:19:20;6.50;99.90
12287;DHT22;6206;53.100;11.098;2023-02-01T01:21:47;6.50;99.90
12287;DHT22;6206;53.100;11.098;2023-02-01T01:24:13;6.50;99.90
12287;DHT22;6206;53.100;11.098;2023-02-01T01:26:42;6.50;99.90
12287;DHT22;6206;53.100;11.098;2023-02-01T01:29:08;6.50;99.90
12287;DHT22;6206;53.100;11.098;2023-02-01T01:34:02;6.50;99.90
12287;DHT22;6206;53.100;11.098;2023-02-01T01:36:28;6.50;99.90
12287;DHT22;6206;53.100;11.098;2023-02-01T01:38:55;6.50;99.90
12287;DHT22;6206;53.100;11.098;2023-02-01T01:41:23;6.60;99.90
12287;DHT22;6206;53.100;11.098;2023-02-01T01:43:52;6.60;99.90
12287;DHT22;6206;53.100;11.098;2023-02-01T01:46:20;6.60;99.90
12287;DHT22;6206;53.100;11.098;2023-02-01T01:48:48;6.60;99.90
12287;DHT22;6206;53.100;11.098;2023-02-01T01:51:17;6.60;99.90
12287;DHT22;6206;53.100;11.098;2023-02-01T01:53:48;6.60;99.90
12287;DHT22;6206;53.100;11.098;2023-02-01T01:56:16;6.60;99.90
12287;DHT22;6206;53.100;11.098;2023-02-01T01:58:43;6.60;99.90
12287;DHT22;6206;53.100;11.098;2023-02-01T02:01:11;6.60;99.90
12287;DHT22;6206;53.100;11.098;2023-02-01T02:03:38;6.60;99.90
12287;DHT22;6206;53.100;11.098;2023-02-01T02:06:06;6.60;99.90
12287;DHT22;6206;53.100;11.098;2023-02-01T02:08:35;6.70;99.90
12287;DHT22;6206;53.100;11.098;2023-02-01T02:11:01;6.60;99.90
12287;DHT22;6206;53.100;11.098;2023-02-01T02:13:29;6.60;99.90
12287;DHT22;6206;53.100;11.098;2023-02-01T02:16:02;6.60;99.90
12287;DHT22;6206;53.100;11.098;2023-02-01T02:18:32;6.70;99.90
12287;DHT22;6206;53.100;11.098;2023-02-01T02:21:10;6.70;99.90
12287;DHT22;6206;53.100;11.098;2023-02-01T02:26:26;6.70;99.90
12287;DHT22;6206;53.100;11.098;2023-02-01T02:31:52;6.80;99.90
12287;DHT22;6206;53.100;11.098;2023-02-01T02:34:23;6.80;99.90
12287;DHT22;6206;53.100;11.098;2023-02-01T02:36:55;6.80;99.90
12287;DHT22;6206;53.100;11.098;2023-02-01T02:39:27;6.70;99.90
12287;DHT22;6206;53.100;11.098;2023-02-01T02:41:59;6.70;99.90
12287;DHT22;6206;53.100;11.098;2023-02-01T02:44:46;6.70;99.90
12287;DHT22;6206;53.100;11.098;2023-02-01T02:47:33;6.60;99.90
12287;DHT22;6206;53.100;11.098;2023-02-01T02:50:11;6.70;99.90
12287;DHT22;6206;53.100;11.098;2023-02-01T02:52:57;6.70;99.90
12287;DHT22;6206;53.100;11.098;2023-02-01T02:55:42;6.70;99.90
12287;DHT22;6206;53.100;11.098;2023-02-01T02:58:09;6.70;99.90
12287;DHT22;6206;53.100;11.098;2023-02-01T03:00:54;6.70;99.90
12287;DHT22;6206;53.100;11.098;2023-02-01T03:03:39;6.70;99.90
12287;DHT22;6206;53.100;11.098;2023-02-01T03:06:24;6.80;99.90
12287;DHT22;6206;53.100;11.098;2023-02-01T03:08:52;6.70;99.90
12287;DHT22;6206;53.100;11.098;2023-02-01T03:11:22;6.80;99.90
12287;DHT22;6206;53.100;11.098;2023-02-01T03:14:09;6.90;99.90
12287;DHT22;6206;53.100;11.098;2023-02-01T03:16:39;6.90;99.90
12287;DHT22;6206;53.100;11.098;2023-02-01T03:19:07;6.90;99.90
12287;DHT22;6206;53.100;11.098;2023-02-01T03:21:37;6.90;99.90
12287;DHT22;6206;53.100;11.098;2023-02-01T03:24:06;6.90;99.90
12287;DHT22;6206;53.100;11.098;2023-02-01T03:29:03;7.00;99.90
12287;DHT22;6206;53.100;11.098;2023-02-01T03:31:31;6.90;99.90
12287;DHT22;6206;53.100;11.098;2023-02-01T03:33:58;6.90;99.90
12287;DHT22;6206;53.100;11.098;2023-02-01T03:36:25;6.90;99.90
12287;DHT22;6206;53.100;11.098;2023-02-01T03:38:55;6.90;99.90
12287;DHT22;6206;53.100;11.098;2023-02-01T03:41:27;6.80;99.90
12287;DHT22;6206;53.100;11.098;2023-02-01T03:43:55;6.80;99.90
12287;DHT22;6206;53.100;11.098;2023-02-01T03:46:24;6.90;99.90
12287;DHT22;6206;53.100;11.098;2023-02-01T03:48:52;6.90;99.90
12287;DHT22;6206;53.100;11.098;2023-02-01T03:51:20;6.90;99.90
12287;DHT22;6206;53.100;11.098;2023-02-01T03:53:46;6.90;99.90
12287;DHT22;6206;53.100;11.098;2023-02-01T03:56:15;6.80;99.90
12287;DHT22;6206;53.100;11.098;2023-02-01T03:58:44;6.80;99.90
12287;DHT22;6206;53.100;11.098;2023-02-01T04:01:24;6.80;99.90
12287;DHT22;6206;53.100;11.098;2023-02-01T04:03:51;6.90;99.90
12287;DHT22;6206;53.100;11.098;2023-02-01T04:06:17;6.90;99.90
12287;DHT22;6206;53.100;11.098;2023-02-01T04:08:44;6.80;99.90
12287;DHT22;6206;53.100;11.098;2023-02-01T04:11:10;6.80;99.90
12287;DHT22;6206;53.100;11.098;2023-02-01T04:13:38;6.70;99.90
12287;DHT22;6206;53.100;11.098;2023-02-01T04:16:05;6.70;99.90
12287;DHT22;6206;53.100;11.098;2023-02-01T04:18:31;6.70;99.90
12287;DHT22;6206;53.100;11.098;2023-02-01T04:20:58;6.70;99.90
12287;DHT22;6206;53.100;11.098;2023-02-01T04:23:24;6.60;99.90
12287;DHT22;6206;53.100;11.098;2023-02-01T04:25:50;6.60;99.90
12287;DHT22;6206;53.100;11.098;2023-02-01T04:28:17;6.50;99.90
12287;DHT22;6206;53.100;11.098;2023-02-01T04:30:45;6.60;99.90
12287;DHT22;6206;53.100;11.098;2023-02-01T04:33:12;6.50;99.90
12287;DHT22;6206;53.100;11.098;2023-02-01T04:35:39;6.40;99.90
12287;DHT22;6206;53.100;11.098;2023-02-01T04:38:05;6.40;99.90
12287;DHT22;6206;53.100;11.098;2023-02-01T04:40:32;6.40;99.90
12287;DHT22;6206;53.100;11.098;2023-02-01T04:45:25;6.30;99.90
12287;DHT22;6206;53.100;11.098;2023-02-01T04:47:53;6.40;99.90
12287;DHT22;6206;53.100;11.098;2023-02-01T04:50:19;6.40;99.90
12287;DHT22;6206;53.100;11.098;2023-02-01T04:52:46;6.40;99.90
12287;DHT22;6206;53.100;11.098;2023-02-01T04:55:12;6.40;99.90
12287;DHT22;6206;53.100;11.098;2023-02-01T04:57:39;6.30;99.90
12287;DHT22;6206;53.100;11.098;2023-02-01T05:00:07;6.20;99.90
12287;DHT22;6206;53.100;11.098;2023-02-01T05:02:34;6.10;99.90
12287;DHT22;6206;53.100;11.098;2023-02-01T05:05:02;6.10;99.90
12287;DHT22;6206;53.100;11.098;2023-02-01T05:07:28;6.00;99.90
12287;DHT22;6206;53.100;11.098;2023-02-01T05:09:55;6.00;99.90
12287;DHT22;6206;53.100;11.098;2023-02-01T05:12:21;6.10;99.90
12287;DHT22;6206;53.100;11.098;2023-02-01T05:15:17;6.10;99.90
12287;DHT22;6206;53.100;11.098;2023-02-01T05:17:43;6.10;99.90
12287;DHT22;6206;53.100;11.098;2023-02-01T05:20:11;6.10;99.90
12287;DHT22;6206;53.100;11.098;2023-02-01T05:22:38;6.00;99.90
12287;DHT22;6206;53.100;11.098;2023-02-01T05:25:04;6.00;99.90
12287;DHT22;6206;53.100;11.098;2023-02-01T05:27:31;6.00;99.90
12287;DHT22;6206;53.100;11.098;2023-02-01T05:29:57;6.00;99.90
12287;DHT22;6206;53.100;11.098;2023-02-01T05:32:24;5.90;99.90
12287;DHT22;6206;53.100;11.098;2023-02-01T05:34:50;6.00;99.90
12287;DHT22;6206;53.100;11.098;2023-02-01T05:37:18;5.90;99.90
12287;DHT22;6206;53.100;11.098;2023-02-01T05:39:45;6.00;99.90
12287;DHT22;6206;53.100;11.098;2023-02-01T05:42:11;5.90;99.90
12287;DHT22;6206;53.100;11.098;2023-02-01T05:44:37;6.00;99.90
12287;DHT22;6206;53.100;11.098;2023-02-01T05:47:04;6.10;99.90
12287;DHT22;6206;53.100;11.098;2023-02-01T05:49:30;6.10;99.90
12287;DHT22;6206;53.100;11.098;2023-02-01T05:51:57;6.10;99.90
12287;DHT22;6206;53.100;11.098;2023-02-01T05:54:25;6.10;99.90
12287;DHT22;6206;53.100;11.098;2023-02-01T05:56:51;5.90;99.90
12287;DHT22;6206;53.100;11.098;2023-02-01T05:59:18;5.80;99.90
12287;DHT22;6206;53.100;11.098;2023-02-01T06:01:44;5.80;99.90
12287;DHT22;6206;53.100;11.098;2023-02-01T06:04:11;5.80;99.90
12287;DHT22;6206;53.100;11.098;2023-02-01T06:06:37;5.90;99.90
12287;DHT22;6206;53.100;11.098;2023-02-01T06:09:04;5.80;99.90
12287;DHT22;6206;53.100;11.098;2023-02-01T06:11:31;5.80;99.90
12287;DHT22;6206;53.100;11.098;2023-02-01T06:13:58;5.80;99.90
12287;DHT22;6206;53.100;11.098;2023-02-01T06:16:25;5.80;99.90
12287;DHT22;6206;53.100;11.098;2023-02-01T06:18:51;5.90;99.90
12287;DHT22;6206;53.100;11.098;2023-02-01T06:21:19;6.00;99.90
12287;DHT22;6206;53.100;11.098;2023-02-01T06:23:49;6.00;99.90
12287;DHT22;6206;53.100;11.098;2023-02-01T06:26:15;6.10;99.90
12287;DHT22;6206;53.100;11.098;2023-02-01T06:28:43;6.00;99.90
12287;DHT22;6206;53.100;11.098;2023-02-01T06:31:10;5.90;99.90
12287;DHT22;6206;53.100;11.098;2023-02-01T06:33:37;5.80;99.90
12287;DHT22;6206;53.100;11.098;2023-02-01T06:36:04;5.70;99.90
12287;DHT22;6206;53.100;11.098;2023-02-01T06:38:32;5.80;99.90
12287;DHT22;6206;53.100;11.098;2023-02-01T06:41:00;5.80;99.90
12287;DHT22;6206;53.100;11.098;2023-02-01T06:43:27;5.80;99.90
12287;DHT22;6206;53.100;11.098;2023-02-01T06:45:59;5.70;99.90
12287;DHT22;6206;53.100;11.098;2023-02-01T06:48:26;5.60;99.90
12287;DHT22;6206;53.100;11.098;2023-02-01T06:50:53;5.40;99.90
12287;DHT22;6206;53.100;11.098;2023-02-01T06:53:19;5.20;99.90
12287;DHT22;6206;53.100;11.098;2023-02-01T06:55:52;5.10;99.90
12287;DHT22;6206;53.100;11.098;2023-02-01T06:58:19;5.00;99.90
12287;DHT22;6206;53.100;11.098;2023-02-01T07:00:45;5.00;99.90
12287;DHT22;6206;53.100;11.098;2023-02-01T07:03:13;5.00;99.90
12287;DHT22;6206;53.100;11.098;2023-02-01T07:05:39;5.00;99.90
12287;DHT22;6206;53.100;11.098;2023-02-01T07:08:06;5.00;99.90
12287;DHT22;6206;53.100;11.098;2023-02-01T07:10:33;4.90;99.90
12287;DHT22;6206;53.100;11.098;2023-02-01T07:13:00;4.80;99.90
12287;DHT22;6206;53.100;11.098;2023-02-01T07:15:26;4.80;99.90
12287;DHT22;6206;53.100;11.098;2023-02-01T07:17:53;4.90;99.90
12287;DHT22;6206;53.100;11.098;2023-02-01T07:20:21;4.90;99.90
12287;DHT22;6206;53.100;11.098;2023-02-01T07:22:48;4.80;99.90
12287;DHT22;6206;53.100;11.098;2023-02-01T07:25:14;4.80;99.90
12287;DHT22;6206;53.100;11.098;2023-02-01T07:27:41;4.80;99.90
12287;DHT22;6206;53.100;11.098;2023-02-01T07:30:08;2.40;99.90
12287;DHT22;6206;53.100;11.098;2023-02-01T07:32:35;4.90;99.90
12287;DHT22;6206;53.100;11.098;2023-02-01T07:35:01;4.80;99.90
12287;DHT22;6206;53.100;11.098;2023-02-01T07:37:29;4.80;99.90
12287;DHT22;6206;53.100;11.098;2023-02-01T07:39:56;4.90;99.90
12287;DHT22;6206;53.100;11.098;2023-02-01T07:42:22;4.80;99.90
12287;DHT22;6206;53.100;11.098;2023-02-01T07:44:48;4.80;99.90
12287;DHT22;6206;53.100;11.098;2023-02-01T07:49:42;4.70;99.90
12287;DHT22;6206;53.100;11.098;2023-02-01T07:52:08;4.70;99.90
12287;DHT22;6206;53.100;11.098;2023-02-01T07:54:37;4.80;99.90
12287;DHT22;6206;53.100;11.098;2023-02-01T07:57:04;4.80;99.90
12287;DHT22;6206;53.100;11.098;2023-02-01T08:01:57;4.90;99.90
12287;DHT22;6206;53.100;11.098;2023-02-01T08:04:23;5.00;99.90
12287;DHT22;6206;53.100;11.098;2023-02-01T08:06:49;5.00;99.90
12287;DHT22;6206;53.100;11.098;2023-02-01T08:09:15;5.00;99.90
12287;DHT22;6206;53.100;11.098;2023-02-01T08:11:43;5.00;99.90
12287;DHT22;6206;53.100;11.098;2023-02-01T08:14:10;5.10;99.90
12287;DHT22;6206;53.100;11.098;2023-02-01T08:16:36;5.20;99.90
12287;DHT22;6206;53.100;11.098;2023-02-01T08:19:04;5.20;99.90
12287;DHT22;6206;53.100;11.098;2023-02-01T08:21:30;5.10;99.90
12287;DHT22;6206;53.100;11.098;2023-02-01T08:24:02;5.20;99.90
12287;DHT22;6206;53.100;11.098;2023-02-01T08:26:29;5.20;99.90
12287;DHT22;6206;53.100;11.098;2023-02-01T08:28:58;5.20;99.90
12287;DHT22;6206;53.100;11.098;2023-02-01T08:31:25;5.20;99.90
12287;DHT22;6206;53.100;11.098;2023-02-01T08:33:52;5.30;99.90
12287;DHT22;6206;53.100;11.098;2023-02-01T08:36:19;5.40;99.90
12287;DHT22;6206;53.100;11.098;2023-02-01T08:38:46;5.40;99.90
12287;DHT22;6206;53.100;11.098;2023-02-01T08:41:13;5.50;99.90
12287;DHT22;6206;53.100;11.098;2023-02-01T08:43:40;5.50;99.90
12287;DHT22;6206;53.100;11.098;2023-02-01T08:46:08;5.60;99.90
12287;DHT22;6206;53.100;11.098;2023-02-01T08:48:34;5.70;99.90
12287;DHT22;6206;53.100;11.098;2023-02-01T08:51:01;5.70;99.90
12287;DHT22;6206;53.100;11.098;2023-02-01T08:53:28;5.70;99.90
12287;DHT22;6206;53.100;11.098;2023-02-01T08:55:55;5.90;99.90
12287;DHT22;6206;53.100;11.098;2023-02-01T08:58:21;5.90;99.90
12287;DHT22;6206;53.100;11.098;2023-02-01T09:00:49;5.90;99.90
12287;DHT22;6206;53.100;11.098;2023-02-01T09:03:17;6.00;99.90
12287;DHT22;6206;53.100;11.098;2023-02-01T09:05:44;6.00;99.90
12287;DHT22;6206;53.100;11.098;2023-02-01T09:08:11;6.00;99.90
12287;DHT22;6206;53.100;11.098;2023-02-01T09:10:39;6.10;99.90
12287;DHT22;6206;53.100;11.098;2023-02-01T09:13:06;6.20;99.90
12287;DHT22;6206;53.100;11.098;2023-02-01T09:15:33;6.20;99.90
12287;DHT22;6206;53.100;11.098;2023-02-01T09:17:59;6.30;99.90
12287;DHT22;6206;53.100;11.098;2023-02-01T09:20:27;6.30;99.90
12287;DHT22;6206;53.100;11.098;2023-02-01T09:22:54;6.30;99.90
12287;DHT22;6206;53.100;11.098;2023-02-01T09:25:21;6.30;99.90
12287;DHT22;6206;53.100;11.098;2023-02-01T09:27:47;6.30;99.90
12287;DHT22;6206;53.100;11.098;2023-02-01T09:30:14;6.40;99.90
12287;DHT22;6206;53.100;11.098;2023-02-01T09:32:40;6.50;99.90
12287;DHT22;6206;53.100;11.098;2023-02-01T09:35:07;6.50;99.90
12287;DHT22;6206;53.100;11.098;2023-02-01T09:37:35;6.50;99.90
12287;DHT22;6206;53.100;11.098;2023-02-01T09:40:03;6.40;99.90
12287;DHT22;6206;53.100;11.098;2023-02-01T09:42:37;6.60;99.90
12287;DHT22;6206;53.100;11.098;2023-02-01T09:45:10;6.60;99.90
12287;DHT22;6206;53.100;11.098;2023-02-01T09:47:38;6.70;99.90
12287;DHT22;6206;53.100;11.098;2023-02-01T09:50:09;6.70;99.90
12287;DHT22;6206;53.100;11.098;2023-02-01T09:52:42;6.80;99.90
12287;DHT22;6206;53.100;11.098;2023-02-01T09:55:10;6.70;99.90
12287;DHT22;6206;53.100;11.098;2023-02-01T09:57:40;6.70;99.90
12287;DHT22;6206;53.100;11.098;2023-02-01T10:00:12;6.80;99.90
12287;DHT22;6206;53.100;11.098;2023-02-01T10:02:40;6.80;99.90
12287;DHT22;6206;53.100;11.098;2023-02-01T10:05:11;6.90;99.90
12287;DHT22;6206;53.100;11.098;2023-02-01T10:07:40;6.90;99.90
12287;DHT22;6206;53.100;11.098;2023-02-01T10:10:11;6.90;99.90
12287;DHT22;6206;53.100;11.098;2023-02-01T10:12:49;6.90;99.90
12287;DHT22;6206;53.100;11.098;2023-02-01T10:15:24;6.90;99.90
12287;DHT22;6206;53.100;11.098;2023-02-01T10:17:56;6.90;99.90
12287;DHT22;6206;53.100;11.098;2023-02-01T10:20:27;6.90;99.90
12287;DHT22;6206;53.100;11.098;2023-02-01T10:22:59;7.00;99.90
12287;DHT22;6206;53.100;11.098;2023-02-01T10:25:30;7.10;99.90
12287;DHT22;6206;53.100;11.098;2023-02-01T10:30:25;7.10;99.90
12287;DHT22;6206;53.100;11.098;2023-02-01T10:32:55;7.20;99.90
12287;DHT22;6206;53.100;11.098;2023-02-01T10:35:24;7.20;99.90
12287;DHT22;6206;53.100;11.098;2023-02-01T10:37:52;7.20;99.90
12287;DHT22;6206;53.100;11.098;2023-02-01T10:40:19;7.20;99.90
12287;DHT22;6206;53.100;11.098;2023-02-01T10:42:48;7.20;99.90
12287;DHT22;6206;53.100;11.098;2023-02-01T10:45:16;7.10;99.90
12287;DHT22;6206;53.100;11.098;2023-02-01T10:47:43;7.20;99.90
12287;DHT22;6206;53.100;11.098;2023-02-01T10:50:13;7.20;99.90
12287;DHT22;6206;53.100;11.098;2023-02-01T10:52:43;7.30;99.90
12287;DHT22;6206;53.100;11.098;2023-02-01T10:55:31;7.30;99.90
12287;DHT22;6206;53.100;11.098;2023-02-01T10:58:00;7.20;99.90
12287;DHT22;6206;53.100;11.098;2023-02-01T11:00:27;7.20;99.90
12287;DHT22;6206;53.100;11.098;2023-02-01T11:02:54;7.20;99.90
12287;DHT22;6206;53.100;11.098;2023-02-01T11:05:21;7.20;99.90
12287;DHT22;6206;53.100;11.098;2023-02-01T11:07:49;7.30;99.90
12287;DHT22;6206;53.100;11.098;2023-02-01T11:13:00;7.20;99.90
12287;DHT22;6206;53.100;11.098;2023-02-01T11:15:28;7.20;99.90
12287;DHT22;6206;53.100;11.098;2023-02-01T11:17:54;7.20;99.90
12287;DHT22;6206;53.100;11.098;2023-02-01T11:20:25;7.20;99.90
12287;DHT22;6206;53.100;11.098;2023-02-01T11:22:59;7.30;99.90
12287;DHT22;6206;53.100;11.098;2023-02-01T11:25:27;7.40;99.90
12287;DHT22;6206;53.100;11.098;2023-02-01T11:27:54;7.40;99.90
12287;DHT22;6206;53.100;11.098;2023-02-01T11:30:25;7.40;99.90
12287;DHT22;6206;53.100;11.098;2023-02-01T11:32:53;7.60;99.90
12287;DHT22;6206;53.100;11.098;2023-02-01T11:35:20;7.60;99.90
12287;DHT22;6206;53.100;11.098;2023-02-01T11:37:48;7.60;99.90
12287;DHT22;6206;53.100;11.098;2023-02-01T11:40:23;7.70;99.90
12287;DHT22;6206;53.100;11.098;2023-02-01T11:42:55;7.70;99.90
12287;DHT22;6206;53.100;11.098;2023-02-01T11:45:26;7.80;99.90
12287;DHT22;6206;53.100;11.098;2023-02-01T11:47:53;7.80;99.90
12287;DHT22;6206;53.100;11.098;2023-02-01T11:50:22;7.70;99.90
12287;DHT22;6206;53.100;11.098;2023-02-01T11:52:55;7.80;99.90
12287;DHT22;6206;53.100;11.098;2023-02-01T11:55:31;7.80;99.90
12287;DHT22;6206;53.100;11.098;2023-02-01T11:58:04;7.80;99.90
12287;DHT22;6206;53.100;11.098;2023-02-01T12:00:37;7.80;99.90
12287;DHT22;6206;53.100;11.098;2023-02-01T12:03:26;7.80;99.90
12287;DHT22;6206;53.100;11.098;2023-02-01T12:05:55;7.90;99.90
12287;DHT22;6206;53.100;11.098;2023-02-01T12:08:35;7.90;99.90
12287;DHT22;6206;53.100;11.098;2023-02-01T12:11:14;7.90;99.90
12287;DHT22;6206;53.100;11.098;2023-02-01T12:13:46;7.90;99.90
12287;DHT22;6206;53.100;11.098;2023-02-01T12:16:19;7.80;99.90
12287;DHT22;6206;53.100;11.098;2023-02-01T12:21:36;7.60;99.90
12287;DHT22;6206;53.100;11.098;2023-02-01T12:24:24;7.60;99.90
12287;DHT22;6206;53.100;11.098;2023-02-01T12:26:56;7.50;99.90
12287;DHT22;6206;53.100;11.098;2023-02-01T12:32:17;7.60;99.90
12287;DHT22;6206;53.100;11.098;2023-02-01T12:34:53;6.80;99.90
12287;DHT22;6206;53.100;11.098;2023-02-01T12:37:27;7.50;99.90
12287;DHT22;6206;53.100;11.098;2023-02-01T12:39:58;7.60;99.90
12287;DHT22;6206;53.100;11.098;2023-02-01T12:42:26;7.50;99.90
12287;DHT22;6206;53.100;11.098;2023-02-01T12:44:54;7.50;99.90
12287;DHT22;6206;53.100;11.098;2023-02-01T12:47:24;7.40;99.90
12287;DHT22;6206;53.100;11.098;2023-02-01T12:49:54;7.40;99.90
12287;DHT22;6206;53.100;11.098;2023-02-01T12:52:23;7.40;99.90
12287;DHT22;6206;53.100;11.098;2023-02-01T12:54:53;7.40;99.90
12287;DHT22;6206;53.100;11.098;2023-02-01T12:57:23;7.40;99.90
12287;DHT22;6206;53.100;11.098;2023-02-01T12:59:51;7.40;99.90
12287;DHT22;6206;53.100;11.098;2023-02-01T13:02:25;7.30;99.90
12287;DHT22;6206;53.100;11.098;2023-02-01T13:04:56;7.20;99.90
12287;DHT22;6206;53.100;11.098;2023-02-01T13:07:27;7.10;99.90
12287;DHT22;6206;53.100;11.098;2023-02-01T13:09:57;7.10;99.90
12287;DHT22;6206;53.100;11.098;2023-02-01T13:12:26;7.10;99.90
12287;DHT22;6206;53.100;11.098;2023-02-01T13:14:55;7.00;99.90
12287;DHT22;6206;53.100;11.098;2023-02-01T13:17:25;7.00;99.90
12287;DHT22;6206;53.100;11.098;2023-02-01T13:19:53;7.00;99.90
12287;DHT22;6206;53.100;11.098;2023-02-01T13:22:23;6.90;99.90
12287;DHT22;6206;53.100;11.098;2023-02-01T13:24:52;6.90;99.90
12287;DHT22;6206;53.100;11.098;2023-02-01T13:27:20;6.80;99.90
12287;DHT22;6206;53.100;11.098;2023-02-01T13:29:50;6.80;99.90
12287;DHT22;6206;53.100;11.098;2023-02-01T13:32:26;6.80;99.90
12287;DHT22;6206;53.100;11.098;2023-02-01T13:37:42;6.70;99.90
12287;DHT22;6206;53.100;11.098;2023-02-01T13:40:18;6.70;99.90
12287;DHT22;6206;53.100;11.098;2023-02-01T13:42:49;6.70;99.90
12287;DHT22;6206;53.100;11.098;2023-02-01T13:45:17;6.60;99.90
12287;DHT22;6206;53.100;11.098;2023-02-01T13:47:47;6.40;99.90
12287;DHT22;6206;53.100;11.098;2023-02-01T13:50:20;6.30;99.90
12287;DHT22;6206;53.100;11.098;2023-02-01T13:52:51;6.30;99.90
12287;DHT22;6206;53.100;11.098;2023-02-01T13:55:28;6.20;99.90
12287;DHT22;6206;53.100;11.098;2023-02-01T13:58:00;6.20;99.90
12287;DHT22;6206;53.100;11.098;2023-02-01T14:00:28;6.10;99.90
12287;DHT22;6206;53.100;11.098;2023-02-01T14:06:14;6.00;99.90
12287;DHT22;6206;53.100;11.098;2023-02-01T14:08:42;5.90;99.90
12287;DHT22;6206;53.100;11.098;2023-02-01T14:13:36;5.90;99.90
12287;DHT22;6206;53.100;11.098;2023-02-01T14:16:16;5.90;99.90
12287;DHT22;6206;53.100;11.098;2023-02-01T14:18:49;5.90;99.90
12287;DHT22;6206;53.100;11.098;2023-02-01T14:21:18;5.90;99.90
12287;DHT22;6206;53.100;11.098;2023-02-01T14:23:46;5.90;99.90
12287;DHT22;6206;53.100;11.098;2023-02-01T14:26:15;6.00;99.90
12287;DHT22;6206;53.100;11.098;2023-02-01T14:28:43;6.10;99.90
12287;DHT22;6206;53.100;11.098;2023-02-01T14:31:14;6.00;99.90
12287;DHT22;6206;53.100;11.098;2023-02-01T14:33:41;6.00;99.90
12287;DHT22;6206;53.100;11.098;2023-02-01T14:36:09;6.10;99.90
12287;DHT22;6206;53.100;11.098;2023-02-01T14:38:38;6.10;99.90
12287;DHT22;6206;53.100;11.098;2023-02-01T14:49:19;6.00;99.90
12287;DHT22;6206;53.100;11.098;2023-02-01T14:51:46;6.10;99.90
12287;DHT22;6206;53.100;11.098;2023-02-01T14:54:14;6.10;99.90
12287;DHT22;6206;53.100;11.098;2023-02-01T14:56:41;6.00;99.90
12287;DHT22;6206;53.100;11.098;2023-02-01T14:59:08;5.90;99.90
12287;DHT22;6206;53.100;11.098;2023-02-01T15:01:36;5.90;99.90
12287;DHT22;6206;53.100;11.098;2023-02-01T15:04:04;6.00;99.90
12287;DHT22;6206;53.100;11.098;2023-02-01T15:06:36;6.00;99.90
12287;DHT22;6206;53.100;11.098;2023-02-01T15:09:07;6.00;99.90
12287;DHT22;6206;53.100;11.098;2023-02-01T15:14:17;5.90;99.90
12287;DHT22;6206;53.100;11.098;2023-02-01T15:16:44;6.00;99.90
12287;DHT22;6206;53.100;11.098;2023-02-01T15:19:15;6.10;99.90
12287;DHT22;6206;53.100;11.098;2023-02-01T15:21:42;6.00;99.90
12287;DHT22;6206;53.100;11.098;2023-02-01T15:24:12;6.00;99.90
12287;DHT22;6206;53.100;11.098;2023-02-01T15:26:39;6.00;99.90
12287;DHT22;6206;53.100;11.098;2023-02-01T15:29:09;6.00;99.90
12287;DHT22;6206;53.100;11.098;2023-02-01T15:31:38;5.90;99.90
12287;DHT22;6206;53.100;11.098;2023-02-01T15:34:05;5.90;99.90
12287;DHT22;6206;53.100;11.098;2023-02-01T15:36:32;5.90;99.90
12287;DHT22;6206;53.100;11.098;2023-02-01T15:39:14;5.90;99.90
12287;DHT22;6206;53.100;11.098;2023-02-01T15:41:44;5.80;99.90
12287;DHT22;6206;53.100;11.098;2023-02-01T15:44:14;5.80;99.90
12287;DHT22;6206;53.100;11.098;2023-02-01T15:46:44;5.80;99.90
12287;DHT22;6206;53.100;11.098;2023-02-01T15:49:16;5.70;99.90
12287;DHT22;6206;53.100;11.098;2023-02-01T15:54:14;5.70;99.90
12287;DHT22;6206;53.100;11.098;2023-02-01T15:56:44;5.60;99.90
12287;DHT22;6206;53.100;11.098;2023-02-01T15:59:17;5.50;99.90
12287;DHT22;6206;53.100;11.098;2023-02-01T16:01:45;5.50;99.90
12287;DHT22;6206;53.100;11.098;2023-02-01T16:04:14;5.50;99.90
12287;DHT22;6206;53.100;11.098;2023-02-01T16:06:45;5.40;99.90
12287;DHT22;6206;53.100;11.098;2023-02-01T16:09:13;5.40;99.90
12287;DHT22;6206;53.100;11.098;2023-02-01T16:11:41;5.40;99.90
12287;DHT22;6206;53.100;11.098;2023-02-01T16:14:07;5.40;99.90
12287;DHT22;6206;53.100;11.098;2023-02-01T16:16:34;5.50;99.90
12287;DHT22;6206;53.100;11.098;2023-02-01T16:19:02;5.50;99.90
12287;DHT22;6206;53.100;11.098;2023-02-01T16:21:28;5.50;99.90
12287;DHT22;6206;53.100;11.098;2023-02-01T16:23:55;5.60;99.90
12287;DHT22;6206;53.100;11.098;2023-02-01T16:26:21;5.60;99.90
12287;DHT22;6206;53.100;11.098;2023-02-01T16:28:48;5.60;99.90
12287;DHT22;6206;53.100;11.098;2023-02-01T16:31:15;5.60;99.90
12287;DHT22;6206;53.100;11.098;2023-02-01T16:33:45;5.50;99.90
12287;DHT22;6206;53.100;11.098;2023-02-01T16:36:13;5.50;99.90
12287;DHT22;6206;53.100;11.098;2023-02-01T16:38:39;5.60;99.90
12287;DHT22;6206;53.100;11.098;2023-02-01T16:41:06;5.60;99.90
12287;DHT22;6206;53.100;11.098;2023-02-01T16:43:33;5.60;99.90
12287;DHT22;6206;53.100;11.098;2023-02-01T16:46:02;5.60;99.90
12287;DHT22;6206;53.100;11.098;2023-02-01T16:48:29;5.70;99.90